Lillis, Kansas
Current Conditions -  °F | °C
As of 12:15 AM on Sunday 26 Oct 2014 (Local Time) from KMYZ Reporting Station
Clear Clear  
Wind Chill: 17°   Ceiling: Unl
Heat Index: 17°   Visibility: 10mi
Dew Point: 10°   Wind: 13mph
Humidity: 63%   Direction: 120°ESE
Pressure: 29.95"   Gusts: 16mph
Location:  39.7199°N, 96.4404°W
Report Text: KMYZ 260515Z AUTO 12011G14KT 10SM CLR 17/10 A2995 RMK AO2
Loading
Personal Weather Stations






























Interactive Weather Map
Tropical Storm Tracking
New forecast layout! Learn more

10-Day Weather Forecast

Advertisements
Track Severe Weather on mobile